sensor_id;sensor_type;location;lat;lon;timestamp;P1;durP1;ratioP1;P2;durP2;ratioP2
8861;SDS011;4799;50.996;4.754;2023-04-16T00:01:33;8.63;;;2.93;;
8861;SDS011;4799;50.996;4.754;2023-04-16T00:03:58;5.73;;;2.90;;
8861;SDS011;4799;50.996;4.754;2023-04-16T00:06:24;9.53;;;2.77;;
8861;SDS011;4799;50.996;4.754;2023-04-16T00:08:51;10.20;;;3.00;;
8861;SDS011;4799;50.996;4.754;2023-04-16T00:11:17;7.37;;;2.87;;
8861;SDS011;4799;50.996;4.754;2023-04-16T00:13:42;8.97;;;3.27;;
8861;SDS011;4799;50.996;4.754;2023-04-16T00:16:08;7.07;;;2.80;;
8861;SDS011;4799;50.996;4.754;2023-04-16T00:18:34;8.27;;;2.63;;
8861;SDS011;4799;50.996;4.754;2023-04-16T00:21:00;8.30;;;2.80;;
8861;SDS011;4799;50.996;4.754;2023-04-16T00:23:25;8.17;;;3.00;;
8861;SDS011;4799;50.996;4.754;2023-04-16T00:25:51;7.90;;;3.00;;
8861;SDS011;4799;50.996;4.754;2023-04-16T00:28:18;8.37;;;2.60;;
8861;SDS011;4799;50.996;4.754;2023-04-16T00:30:43;6.33;;;2.20;;
8861;SDS011;4799;50.996;4.754;2023-04-16T00:33:09;5.20;;;2.40;;
8861;SDS011;4799;50.996;4.754;2023-04-16T00:35:35;5.77;;;2.40;;
8861;SDS011;4799;50.996;4.754;2023-04-16T00:38:00;6.63;;;2.30;;
8861;SDS011;4799;50.996;4.754;2023-04-16T00:40:26;5.37;;;2.10;;
8861;SDS011;4799;50.996;4.754;2023-04-16T00:42:53;7.60;;;2.20;;
8861;SDS011;4799;50.996;4.754;2023-04-16T00:45:19;5.50;;;2.03;;
8861;SDS011;4799;50.996;4.754;2023-04-16T00:47:44;6.20;;;2.10;;
8861;SDS011;4799;50.996;4.754;2023-04-16T00:50:10;6.27;;;1.80;;
8861;SDS011;4799;50.996;4.754;2023-04-16T00:52:37;5.43;;;2.00;;
8861;SDS011;4799;50.996;4.754;2023-04-16T00:55:05;5.77;;;1.83;;
8861;SDS011;4799;50.996;4.754;2023-04-16T00:57:31;6.63;;;1.97;;
8861;SDS011;4799;50.996;4.754;2023-04-16T00:59:57;7.13;;;1.97;;
8861;SDS011;4799;50.996;4.754;2023-04-16T01:02:23;7.50;;;1.83;;
8861;SDS011;4799;50.996;4.754;2023-04-16T01:04:49;6.63;;;2.27;;
8861;SDS011;4799;50.996;4.754;2023-04-16T01:07:15;4.80;;;1.80;;
8861;SDS011;4799;50.996;4.754;2023-04-16T01:09:41;5.97;;;2.00;;
8861;SDS011;4799;50.996;4.754;2023-04-16T01:12:07;7.27;;;2.27;;
8861;SDS011;4799;50.996;4.754;2023-04-16T01:14:33;6.17;;;1.87;;
8861;SDS011;4799;50.996;4.754;2023-04-16T01:17:01;3.97;;;2.07;;
8861;SDS011;4799;50.996;4.754;2023-04-16T01:19:27;4.83;;;2.30;;
8861;SDS011;4799;50.996;4.754;2023-04-16T01:21:57;5.33;;;2.50;;
8861;SDS011;4799;50.996;4.754;2023-04-16T01:24:22;4.60;;;2.70;;
8861;SDS011;4799;50.996;4.754;2023-04-16T01:26:48;6.23;;;2.60;;
8861;SDS011;4799;50.996;4.754;2023-04-16T01:29:14;8.73;;;3.17;;
8861;SDS011;4799;50.996;4.754;2023-04-16T01:31:40;9.57;;;3.20;;
8861;SDS011;4799;50.996;4.754;2023-04-16T01:34:05;7.53;;;3.00;;
8861;SDS011;4799;50.996;4.754;2023-04-16T01:36:31;6.77;;;3.30;;
8861;SDS011;4799;50.996;4.754;2023-04-16T01:38:57;5.07;;;3.40;;
8861;SDS011;4799;50.996;4.754;2023-04-16T01:41:23;7.13;;;3.70;;
8861;SDS011;4799;50.996;4.754;2023-04-16T01:43:48;6.87;;;3.73;;
8861;SDS011;4799;50.996;4.754;2023-04-16T01:46:17;8.40;;;4.20;;
8861;SDS011;4799;50.996;4.754;2023-04-16T01:48:44;7.83;;;3.67;;
8861;SDS011;4799;50.996;4.754;2023-04-16T01:51:11;9.90;;;4.20;;
8861;SDS011;4799;50.996;4.754;2023-04-16T01:53:37;8.37;;;4.13;;
8861;SDS011;4799;50.996;4.754;2023-04-16T01:56:03;5.77;;;3.80;;
8861;SDS011;4799;50.996;4.754;2023-04-16T01:58:29;9.13;;;3.90;;
8861;SDS011;4799;50.996;4.754;2023-04-16T02:00:57;8.13;;;4.50;;
8861;SDS011;4799;50.996;4.754;2023-04-16T02:03:23;7.13;;;4.43;;
8861;SDS011;4799;50.996;4.754;2023-04-16T02:05:49;6.43;;;4.20;;
8861;SDS011;4799;50.996;4.754;2023-04-16T02:08:15;5.77;;;4.10;;
8861;SDS011;4799;50.996;4.754;2023-04-16T02:10:44;8.07;;;4.10;;
8861;SDS011;4799;50.996;4.754;2023-04-16T02:13:11;6.97;;;4.40;;
8861;SDS011;4799;50.996;4.754;2023-04-16T02:15:37;8.87;;;4.50;;
8861;SDS011;4799;50.996;4.754;2023-04-16T02:18:03;7.73;;;4.40;;
8861;SDS011;4799;50.996;4.754;2023-04-16T02:20:29;4.87;;;4.37;;
8861;SDS011;4799;50.996;4.754;2023-04-16T02:22:54;8.30;;;4.20;;
8861;SDS011;4799;50.996;4.754;2023-04-16T02:25:20;6.17;;;4.07;;
8861;SDS011;4799;50.996;4.754;2023-04-16T02:27:47;7.17;;;4.10;;
8861;SDS011;4799;50.996;4.754;2023-04-16T02:30:12;6.40;;;4.33;;
8861;SDS011;4799;50.996;4.754;2023-04-16T02:32:38;7.27;;;4.10;;
8861;SDS011;4799;50.996;4.754;2023-04-16T02:35:04;10.23;;;5.00;;
8861;SDS011;4799;50.996;4.754;2023-04-16T02:37:30;6.67;;;4.67;;
8861;SDS011;4799;50.996;4.754;2023-04-16T02:39:56;7.27;;;4.53;;
8861;SDS011;4799;50.996;4.754;2023-04-16T02:42:21;8.57;;;4.70;;
8861;SDS011;4799;50.996;4.754;2023-04-16T02:44:47;6.33;;;4.73;;
8861;SDS011;4799;50.996;4.754;2023-04-16T02:47:13;7.20;;;4.90;;
8861;SDS011;4799;50.996;4.754;2023-04-16T02:49:38;9.03;;;4.90;;
8861;SDS011;4799;50.996;4.754;2023-04-16T02:52:04;8.33;;;5.27;;
8861;SDS011;4799;50.996;4.754;2023-04-16T02:54:30;7.67;;;5.10;;
8861;SDS011;4799;50.996;4.754;2023-04-16T02:56:56;8.33;;;4.97;;
8861;SDS011;4799;50.996;4.754;2023-04-16T02:59:21;9.20;;;4.77;;
8861;SDS011;4799;50.996;4.754;2023-04-16T03:01:47;7.90;;;5.10;;
8861;SDS011;4799;50.996;4.754;2023-04-16T03:04:13;7.70;;;5.13;;
8861;SDS011;4799;50.996;4.754;2023-04-16T03:06:38;10.30;;;5.00;;
8861;SDS011;4799;50.996;4.754;2023-04-16T03:09:04;8.13;;;5.33;;
8861;SDS011;4799;50.996;4.754;2023-04-16T03:11:30;8.37;;;5.47;;
8861;SDS011;4799;50.996;4.754;2023-04-16T03:13:55;6.43;;;4.63;;
8861;SDS011;4799;50.996;4.754;2023-04-16T03:16:21;6.60;;;4.80;;
8861;SDS011;4799;50.996;4.754;2023-04-16T03:18:47;7.60;;;5.27;;
8861;SDS011;4799;50.996;4.754;2023-04-16T03:21:12;7.77;;;5.10;;
8861;SDS011;4799;50.996;4.754;2023-04-16T03:23:38;7.27;;;5.17;;
8861;SDS011;4799;50.996;4.754;2023-04-16T03:26:04;7.80;;;5.20;;
8861;SDS011;4799;50.996;4.754;2023-04-16T03:28:30;8.27;;;5.23;;
8861;SDS011;4799;50.996;4.754;2023-04-16T03:30:56;9.53;;;5.50;;
8861;SDS011;4799;50.996;4.754;2023-04-16T03:33:21;7.53;;;5.70;;
8861;SDS011;4799;50.996;4.754;2023-04-16T03:35:53;9.60;;;5.60;;
8861;SDS011;4799;50.996;4.754;2023-04-16T03:38:23;9.47;;;5.80;;
8861;SDS011;4799;50.996;4.754;2023-04-16T03:40:50;9.67;;;6.23;;
8861;SDS011;4799;50.996;4.754;2023-04-16T03:43:16;10.00;;;6.07;;
8861;SDS011;4799;50.996;4.754;2023-04-16T03:45:45;8.87;;;6.60;;
8861;SDS011;4799;50.996;4.754;2023-04-16T03:48:11;7.97;;;6.00;;
8861;SDS011;4799;50.996;4.754;2023-04-16T03:50:37;8.90;;;6.20;;
8861;SDS011;4799;50.996;4.754;2023-04-16T03:53:02;7.77;;;6.37;;
8861;SDS011;4799;50.996;4.754;2023-04-16T03:55:28;11.03;;;7.13;;
8861;SDS011;4799;50.996;4.754;2023-04-16T03:57:54;8.43;;;7.00;;
8861;SDS011;4799;50.996;4.754;2023-04-16T04:00:20;9.83;;;7.00;;
8861;SDS011;4799;50.996;4.754;2023-04-16T04:02:46;9.07;;;7.63;;
8861;SDS011;4799;50.996;4.754;2023-04-16T04:05:11;11.23;;;8.20;;
8861;SDS011;4799;50.996;4.754;2023-04-16T04:07:37;9.73;;;7.70;;
8861;SDS011;4799;50.996;4.754;2023-04-16T04:10:03;8.33;;;7.30;;
8861;SDS011;4799;50.996;4.754;2023-04-16T04:12:30;9.57;;;7.50;;
8861;SDS011;4799;50.996;4.754;2023-04-16T04:14:56;11.03;;;7.93;;
8861;SDS011;4799;50.996;4.754;2023-04-16T04:17:22;10.30;;;7.63;;
8861;SDS011;4799;50.996;4.754;2023-04-16T04:19:47;11.77;;;8.23;;
8861;SDS011;4799;50.996;4.754;2023-04-16T04:22:13;9.83;;;8.03;;
8861;SDS011;4799;50.996;4.754;2023-04-16T04:24:39;10.17;;;8.47;;
8861;SDS011;4799;50.996;4.754;2023-04-16T04:27:05;14.87;;;8.77;;
8861;SDS011;4799;50.996;4.754;2023-04-16T04:29:30;12.20;;;9.73;;
8861;SDS011;4799;50.996;4.754;2023-04-16T04:31:56;12.97;;;9.60;;
8861;SDS011;4799;50.996;4.754;2023-04-16T04:34:23;11.80;;;9.27;;
8861;SDS011;4799;50.996;4.754;2023-04-16T04:36:48;15.13;;;9.97;;
8861;SDS011;4799;50.996;4.754;2023-04-16T04:39:14;13.97;;;10.00;;
8861;SDS011;4799;50.996;4.754;2023-04-16T04:41:40;14.53;;;11.03;;
8861;SDS011;4799;50.996;4.754;2023-04-16T04:44:06;14.87;;;10.83;;
8861;SDS011;4799;50.996;4.754;2023-04-16T04:46:31;15.00;;;10.77;;
8861;SDS011;4799;50.996;4.754;2023-04-16T04:48:57;13.03;;;10.93;;
8861;SDS011;4799;50.996;4.754;2023-04-16T04:51:23;15.63;;;11.80;;
8861;SDS011;4799;50.996;4.754;2023-04-16T04:53:48;15.07;;;11.40;;
8861;SDS011;4799;50.996;4.754;2023-04-16T04:56:14;14.77;;;11.47;;
8861;SDS011;4799;50.996;4.754;2023-04-16T04:58:40;14.53;;;12.00;;
8861;SDS011;4799;50.996;4.754;2023-04-16T05:01:06;13.00;;;11.37;;
8861;SDS011;4799;50.996;4.754;2023-04-16T05:03:32;13.20;;;11.70;;
8861;SDS011;4799;50.996;4.754;2023-04-16T05:05:57;13.07;;;10.93;;
8861;SDS011;4799;50.996;4.754;2023-04-16T05:08:23;12.73;;;11.23;;
8861;SDS011;4799;50.996;4.754;2023-04-16T05:10:49;14.60;;;11.47;;
8861;SDS011;4799;50.996;4.754;2023-04-16T05:13:15;16.47;;;11.83;;
8861;SDS011;4799;50.996;4.754;2023-04-16T05:15:40;15.60;;;12.00;;
8861;SDS011;4799;50.996;4.754;2023-04-16T05:18:06;14.57;;;11.97;;
8861;SDS011;4799;50.996;4.754;2023-04-16T05:20:32;13.50;;;11.63;;
8861;SDS011;4799;50.996;4.754;2023-04-16T05:22:57;15.00;;;11.37;;
8861;SDS011;4799;50.996;4.754;2023-04-16T05:25:23;14.27;;;11.47;;
8861;SDS011;4799;50.996;4.754;2023-04-16T05:27:49;19.00;;;11.85;;
8861;SDS011;4799;50.996;4.754;2023-04-16T05:30:15;15.87;;;12.20;;
8861;SDS011;4799;50.996;4.754;2023-04-16T05:32:40;13.63;;;12.13;;
8861;SDS011;4799;50.996;4.754;2023-04-16T05:35:06;14.10;;;11.83;;
8861;SDS011;4799;50.996;4.754;2023-04-16T05:37:33;15.33;;;12.60;;
8861;SDS011;4799;50.996;4.754;2023-04-16T05:39:59;15.73;;;14.07;;
8861;SDS011;4799;50.996;4.754;2023-04-16T05:42:25;14.60;;;13.07;;
8861;SDS011;4799;50.996;4.754;2023-04-16T05:44:50;16.10;;;14.03;;
8861;SDS011;4799;50.996;4.754;2023-04-16T05:47:16;18.03;;;14.67;;
8861;SDS011;4799;50.996;4.754;2023-04-16T05:49:42;17.27;;;14.23;;
8861;SDS011;4799;50.996;4.754;2023-04-16T05:52:08;15.90;;;14.30;;
8861;SDS011;4799;50.996;4.754;2023-04-16T05:54:34;17.37;;;14.03;;
8861;SDS011;4799;50.996;4.754;2023-04-16T05:56:59;17.10;;;14.30;;
8861;SDS011;4799;50.996;4.754;2023-04-16T05:59:26;18.53;;;14.70;;
8861;SDS011;4799;50.996;4.754;2023-04-16T06:01:52;17.87;;;14.67;;
8861;SDS011;4799;50.996;4.754;2023-04-16T06:04:18;16.10;;;14.27;;
8861;SDS011;4799;50.996;4.754;2023-04-16T06:06:43;16.40;;;14.70;;
8861;SDS011;4799;50.996;4.754;2023-04-16T06:09:09;15.93;;;14.23;;
8861;SDS011;4799;50.996;4.754;2023-04-16T06:11:35;15.93;;;14.27;;
8861;SDS011;4799;50.996;4.754;2023-04-16T06:14:00;14.50;;;13.10;;
8861;SDS011;4799;50.996;4.754;2023-04-16T06:16:26;16.03;;;14.30;;
8861;SDS011;4799;50.996;4.754;2023-04-16T06:18:52;17.33;;;14.50;;
8861;SDS011;4799;50.996;4.754;2023-04-16T06:21:17;15.50;;;13.47;;
8861;SDS011;4799;50.996;4.754;2023-04-16T06:23:43;17.23;;;13.83;;
8861;SDS011;4799;50.996;4.754;2023-04-16T06:26:09;16.67;;;14.00;;
8861;SDS011;4799;50.996;4.754;2023-04-16T06:28:35;14.87;;;13.47;;
8861;SDS011;4799;50.996;4.754;2023-04-16T06:31:01;16.37;;;14.50;;
8861;SDS011;4799;50.996;4.754;2023-04-16T06:33:27;18.27;;;14.30;;
8861;SDS011;4799;50.996;4.754;2023-04-16T06:35:52;15.77;;;14.17;;
8861;SDS011;4799;50.996;4.754;2023-04-16T06:38:18;15.47;;;13.87;;
8861;SDS011;4799;50.996;4.754;2023-04-16T06:40:44;16.47;;;13.97;;
8861;SDS011;4799;50.996;4.754;2023-04-16T06:43:10;15.03;;;13.47;;
8861;SDS011;4799;50.996;4.754;2023-04-16T06:45:35;16.20;;;13.67;;
8861;SDS011;4799;50.996;4.754;2023-04-16T06:48:01;16.07;;;14.40;;
8861;SDS011;4799;50.996;4.754;2023-04-16T06:50:29;16.53;;;14.83;;
8861;SDS011;4799;50.996;4.754;2023-04-16T06:52:55;17.60;;;14.90;;
8861;SDS011;4799;50.996;4.754;2023-04-16T06:55:20;16.20;;;14.03;;
8861;SDS011;4799;50.996;4.754;2023-04-16T06:57:46;16.33;;;14.67;;
8861;SDS011;4799;50.996;4.754;2023-04-16T07:00:12;17.37;;;15.07;;
8861;SDS011;4799;50.996;4.754;2023-04-16T07:02:38;16.83;;;15.13;;
8861;SDS011;4799;50.996;4.754;2023-04-16T07:05:04;15.07;;;13.47;;
8861;SDS011;4799;50.996;4.754;2023-04-16T07:07:31;19.57;;;15.03;;
8861;SDS011;4799;50.996;4.754;2023-04-16T07:09:57;16.23;;;14.57;;
8861;SDS011;4799;50.996;4.754;2023-04-16T07:12:23;16.83;;;14.53;;
8861;SDS011;4799;50.996;4.754;2023-04-16T07:14:49;15.77;;;14.10;;
8861;SDS011;4799;50.996;4.754;2023-04-16T07:17:15;15.47;;;13.93;;
8861;SDS011;4799;50.996;4.754;2023-04-16T07:19:41;17.93;;;13.87;;
8861;SDS011;4799;50.996;4.754;2023-04-16T07:22:06;18.17;;;15.03;;
8861;SDS011;4799;50.996;4.754;2023-04-16T07:24:32;20.30;;;14.30;;
8861;SDS011;4799;50.996;4.754;2023-04-16T07:26:59;17.17;;;15.10;;
8861;SDS011;4799;50.996;4.754;2023-04-16T07:29:25;17.17;;;15.37;;
8861;SDS011;4799;50.996;4.754;2023-04-16T07:31:51;16.27;;;14.77;;
8861;SDS011;4799;50.996;4.754;2023-04-16T07:34:17;16.50;;;14.77;;
8861;SDS011;4799;50.996;4.754;2023-04-16T07:36:42;17.00;;;14.60;;
8861;SDS011;4799;50.996;4.754;2023-04-16T07:39:08;18.70;;;15.40;;
8861;SDS011;4799;50.996;4.754;2023-04-16T07:41:35;20.93;;;15.23;;
8861;SDS011;4799;50.996;4.754;2023-04-16T07:44:01;16.50;;;14.57;;
8861;SDS011;4799;50.996;4.754;2023-04-16T07:46:27;18.63;;;14.70;;
8861;SDS011;4799;50.996;4.754;2023-04-16T07:48:53;19.43;;;14.50;;
8861;SDS011;4799;50.996;4.754;2023-04-16T07:51:19;17.57;;;14.30;;
8861;SDS011;4799;50.996;4.754;2023-04-16T07:53:45;17.13;;;14.17;;
8861;SDS011;4799;50.996;4.754;2023-04-16T07:56:10;14.63;;;12.80;;
8861;SDS011;4799;50.996;4.754;2023-04-16T07:58:36;19.17;;;14.00;;
8861;SDS011;4799;50.996;4.754;2023-04-16T08:01:02;15.50;;;13.70;;
8861;SDS011;4799;50.996;4.754;2023-04-16T08:03:28;19.00;;;14.13;;
8861;SDS011;4799;50.996;4.754;2023-04-16T08:05:53;15.37;;;13.60;;
8861;SDS011;4799;50.996;4.754;2023-04-16T08:08:19;16.73;;;13.63;;
8861;SDS011;4799;50.996;4.754;2023-04-16T08:10:45;18.07;;;13.80;;
8861;SDS011;4799;50.996;4.754;2023-04-16T08:13:11;15.43;;;13.77;;
8861;SDS011;4799;50.996;4.754;2023-04-16T08:15:37;16.23;;;14.40;;
8861;SDS011;4799;50.996;4.754;2023-04-16T08:18:03;17.60;;;14.50;;
8861;SDS011;4799;50.996;4.754;2023-04-16T08:20:30;16.53;;;14.80;;
8861;SDS011;4799;50.996;4.754;2023-04-16T08:22:55;17.00;;;13.70;;
8861;SDS011;4799;50.996;4.754;2023-04-16T08:25:21;17.10;;;15.10;;
8861;SDS011;4799;50.996;4.754;2023-04-16T08:27:48;17.90;;;15.80;;
8861;SDS011;4799;50.996;4.754;2023-04-16T08:30:15;16.33;;;14.50;;
8861;SDS011;4799;50.996;4.754;2023-04-16T08:32:41;19.30;;;16.63;;
8861;SDS011;4799;50.996;4.754;2023-04-16T08:35:08;18.93;;;15.60;;
8861;SDS011;4799;50.996;4.754;2023-04-16T08:37:33;20.40;;;16.10;;
8861;SDS011;4799;50.996;4.754;2023-04-16T08:39:59;18.60;;;16.27;;
8861;SDS011;4799;50.996;4.754;2023-04-16T08:42:29;17.40;;;15.70;;
8861;SDS011;4799;50.996;4.754;2023-04-16T08:45:13;18.27;;;15.37;;
8861;SDS011;4799;50.996;4.754;2023-04-16T08:47:40;20.87;;;16.17;;
8861;SDS011;4799;50.996;4.754;2023-04-16T08:50:13;19.40;;;16.00;;
8861;SDS011;4799;50.996;4.754;2023-04-16T08:52:59;19.07;;;15.17;;
8861;SDS011;4799;50.996;4.754;2023-04-16T08:55:35;19.97;;;15.00;;
8861;SDS011;4799;50.996;4.754;2023-04-16T08:58:05;18.90;;;15.17;;
8861;SDS011;4799;50.996;4.754;2023-04-16T09:00:51;19.20;;;15.33;;
8861;SDS011;4799;50.996;4.754;2023-04-16T09:03:19;22.20;;;16.00;;
8861;SDS011;4799;50.996;4.754;2023-04-16T09:05:45;21.30;;;14.50;;
8861;SDS011;4799;50.996;4.754;2023-04-16T09:08:12;18.55;;;14.30;;
8861;SDS011;4799;50.996;4.754;2023-04-16T09:10:38;15.67;;;14.03;;
8861;SDS011;4799;50.996;4.754;2023-04-16T09:13:03;16.30;;;13.37;;
8861;SDS011;4799;50.996;4.754;2023-04-16T09:15:29;15.20;;;13.20;;
8861;SDS011;4799;50.996;4.754;2023-04-16T09:17:56;15.27;;;12.33;;
8861;SDS011;4799;50.996;4.754;2023-04-16T09:20:22;17.50;;;12.50;;
8861;SDS011;4799;50.996;4.754;2023-04-16T09:22:47;17.53;;;12.40;;
8861;SDS011;4799;50.996;4.754;2023-04-16T09:25:13;16.67;;;11.13;;
8861;SDS011;4799;50.996;4.754;2023-04-16T09:27:39;16.63;;;12.10;;
8861;SDS011;4799;50.996;4.754;2023-04-16T09:30:24;16.80;;;10.93;;
8861;SDS011;4799;50.996;4.754;2023-04-16T09:32:52;14.37;;;11.13;;
8861;SDS011;4799;50.996;4.754;2023-04-16T09:35:47;14.73;;;11.17;;
8861;SDS011;4799;50.996;4.754;2023-04-16T09:38:13;14.47;;;10.87;;
8861;SDS011;4799;50.996;4.754;2023-04-16T09:40:40;13.27;;;10.83;;
8861;SDS011;4799;50.996;4.754;2023-04-16T09:43:12;14.00;;;10.90;;
8861;SDS011;4799;50.996;4.754;2023-04-16T09:45:49;14.23;;;11.20;;
8861;SDS011;4799;50.996;4.754;2023-04-16T09:48:21;13.90;;;11.93;;
8861;SDS011;4799;50.996;4.754;2023-04-16T09:50:55;13.80;;;11.60;;
8861;SDS011;4799;50.996;4.754;2023-04-16T09:53:23;13.77;;;10.37;;
8861;SDS011;4799;50.996;4.754;2023-04-16T09:55:51;12.93;;;11.27;;
8861;SDS011;4799;50.996;4.754;2023-04-16T09:58:23;12.47;;;10.77;;
8861;SDS011;4799;50.996;4.754;2023-04-16T10:01:08;13.43;;;10.73;;
8861;SDS011;4799;50.996;4.754;2023-04-16T10:03:38;13.90;;;10.63;;
8861;SDS011;4799;50.996;4.754;2023-04-16T10:06:14;14.00;;;10.43;;
8861;SDS011;4799;50.996;4.754;2023-04-16T10:08:46;15.40;;;11.30;;
8861;SDS011;4799;50.996;4.754;2023-04-16T10:11:12;15.37;;;10.83;;
8861;SDS011;4799;50.996;4.754;2023-04-16T10:13:39;15.80;;;10.97;;
8861;SDS011;4799;50.996;4.754;2023-04-16T10:16:05;12.93;;;11.37;;
8861;SDS011;4799;50.996;4.754;2023-04-16T10:18:33;11.97;;;10.77;;
8861;SDS011;4799;50.996;4.754;2023-04-16T10:21:02;14.60;;;10.60;;
8861;SDS011;4799;50.996;4.754;2023-04-16T10:23:28;14.93;;;10.73;;
8861;SDS011;4799;50.996;4.754;2023-04-16T10:25:54;12.13;;;10.50;;
8861;SDS011;4799;50.996;4.754;2023-04-16T10:28:20;12.17;;;10.27;;
8861;SDS011;4799;50.996;4.754;2023-04-16T10:30:47;17.73;;;10.77;;
8861;SDS011;4799;50.996;4.754;2023-04-16T10:33:20;12.27;;;10.13;;
8861;SDS011;4799;50.996;4.754;2023-04-16T10:35:48;13.40;;;10.20;;
8861;SDS011;4799;50.996;4.754;2023-04-16T10:38:22;13.50;;;10.60;;
8861;SDS011;4799;50.996;4.754;2023-04-16T10:40:49;11.37;;;9.30;;
8861;SDS011;4799;50.996;4.754;2023-04-16T10:43:23;12.37;;;10.10;;
8861;SDS011;4799;50.996;4.754;2023-04-16T10:45:49;10.53;;;9.03;;
8861;SDS011;4799;50.996;4.754;2023-04-16T10:48:17;15.03;;;10.10;;
8861;SDS011;4799;50.996;4.754;2023-04-16T10:50:52;12.93;;;10.27;;
8861;SDS011;4799;50.996;4.754;2023-04-16T10:53:24;11.60;;;9.70;;
8861;SDS011;4799;50.996;4.754;2023-04-16T10:55:58;13.97;;;10.07;;
8861;SDS011;4799;50.996;4.754;2023-04-16T10:58:36;12.77;;;10.10;;
8861;SDS011;4799;50.996;4.754;2023-04-16T11:01:06;9.93;;;8.90;;
8861;SDS011;4799;50.996;4.754;2023-04-16T11:03:36;13.40;;;9.60;;
8861;SDS011;4799;50.996;4.754;2023-04-16T11:08:39;12.57;;;9.47;;
8861;SDS011;4799;50.996;4.754;2023-04-16T11:11:08;11.97;;;9.10;;
8861;SDS011;4799;50.996;4.754;2023-04-16T11:13:35;11.73;;;9.77;;
8861;SDS011;4799;50.996;4.754;2023-04-16T11:16:02;11.87;;;9.97;;
8861;SDS011;4799;50.996;4.754;2023-04-16T11:18:28;14.57;;;11.43;;
8861;SDS011;4799;50.996;4.754;2023-04-16T11:20:54;11.03;;;9.93;;
8861;SDS011;4799;50.996;4.754;2023-04-16T11:23:20;10.00;;;8.87;;
8861;SDS011;4799;50.996;4.754;2023-04-16T11:25:46;13.63;;;9.37;;
8861;SDS011;4799;50.996;4.754;2023-04-16T11:28:11;10.83;;;9.50;;
8861;SDS011;4799;50.996;4.754;2023-04-16T11:30:37;12.83;;;9.93;;
8861;SDS011;4799;50.996;4.754;2023-04-16T11:33:04;12.90;;;9.67;;
8861;SDS011;4799;50.996;4.754;2023-04-16T11:35:32;11.00;;;9.77;;
8861;SDS011;4799;50.996;4.754;2023-04-16T11:37:58;10.57;;;9.50;;
8861;SDS011;4799;50.996;4.754;2023-04-16T11:40:24;12.20;;;9.47;;
8861;SDS011;4799;50.996;4.754;2023-04-16T11:42:53;11.10;;;9.50;;
8861;SDS011;4799;50.996;4.754;2023-04-16T11:45:19;10.37;;;9.20;;
8861;SDS011;4799;50.996;4.754;2023-04-16T11:47:49;10.13;;;9.00;;
8861;SDS011;4799;50.996;4.754;2023-04-16T11:50:21;10.00;;;9.00;;
8861;SDS011;4799;50.996;4.754;2023-04-16T11:52:51;10.97;;;9.53;;
8861;SDS011;4799;50.996;4.754;2023-04-16T11:55:22;11.00;;;9.90;;
8861;SDS011;4799;50.996;4.754;2023-04-16T11:57:48;10.50;;;9.50;;
8861;SDS011;4799;50.996;4.754;2023-04-16T12:00:14;11.03;;;9.93;;
8861;SDS011;4799;50.996;4.754;2023-04-16T12:02:41;10.00;;;9.00;;
8861;SDS011;4799;50.996;4.754;2023-04-16T12:08:03;10.80;;;9.70;;
8861;SDS011;4799;50.996;4.754;2023-04-16T12:10:31;11.50;;;9.50;;
8861;SDS011;4799;50.996;4.754;2023-04-16T12:13:11;12.03;;;10.73;;
8861;SDS011;4799;50.996;4.754;2023-04-16T12:18:14;11.30;;;10.13;;
8861;SDS011;4799;50.996;4.754;2023-04-16T12:20:44;10.80;;;9.80;;
8861;SDS011;4799;50.996;4.754;2023-04-16T12:25:52;15.20;;;13.60;;
8861;SDS011;4799;50.996;4.754;2023-04-16T12:30:57;19.90;;;16.40;;
8861;SDS011;4799;50.996;4.754;2023-04-16T12:33:23;15.43;;;13.83;;
8861;SDS011;4799;50.996;4.754;2023-04-16T12:35:49;16.73;;;14.90;;
8861;SDS011;4799;50.996;4.754;2023-04-16T12:38:15;17.17;;;15.47;;
8861;SDS011;4799;50.996;4.754;2023-04-16T12:40:41;16.10;;;14.00;;
8861;SDS011;4799;50.996;4.754;2023-04-16T12:43:08;18.73;;;14.43;;
8861;SDS011;4799;50.996;4.754;2023-04-16T12:45:34;18.53;;;14.47;;
8861;SDS011;4799;50.996;4.754;2023-04-16T12:48:00;16.70;;;13.77;;
8861;SDS011;4799;50.996;4.754;2023-04-16T12:50:26;16.53;;;14.83;;
8861;SDS011;4799;50.996;4.754;2023-04-16T12:52:55;17.70;;;14.27;;
8861;SDS011;4799;50.996;4.754;2023-04-16T12:55:22;16.80;;;14.63;;
8861;SDS011;4799;50.996;4.754;2023-04-16T12:57:48;18.17;;;15.80;;
8861;SDS011;4799;50.996;4.754;2023-04-16T13:00:16;20.30;;;15.73;;
8861;SDS011;4799;50.996;4.754;2023-04-16T13:02:43;17.67;;;15.77;;
8861;SDS011;4799;50.996;4.754;2023-04-16T13:05:09;17.23;;;15.50;;
8861;SDS011;4799;50.996;4.754;2023-04-16T13:07:35;17.93;;;15.30;;
8861;SDS011;4799;50.996;4.754;2023-04-16T13:10:01;17.67;;;15.67;;
8861;SDS011;4799;50.996;4.754;2023-04-16T13:12:27;18.83;;;16.98;;
8861;SDS011;4799;50.996;4.754;2023-04-16T13:14:53;18.75;;;16.85;;
8861;SDS011;4799;50.996;4.754;2023-04-16T13:17:19;18.87;;;16.77;;
8861;SDS011;4799;50.996;4.754;2023-04-16T13:19:45;19.53;;;16.63;;
8861;SDS011;4799;50.996;4.754;2023-04-16T13:22:11;20.27;;;16.93;;
8861;SDS011;4799;50.996;4.754;2023-04-16T13:24:37;18.20;;;16.30;;
8861;SDS011;4799;50.996;4.754;2023-04-16T13:27:03;19.20;;;16.20;;
8861;SDS011;4799;50.996;4.754;2023-04-16T13:29:29;17.93;;;16.03;;
8861;SDS011;4799;50.996;4.754;2023-04-16T13:31:55;18.60;;;16.70;;
8861;SDS011;4799;50.996;4.754;2023-04-16T13:34:21;18.17;;;15.30;;
8861;SDS011;4799;50.996;4.754;2023-04-16T13:36:47;17.53;;;15.30;;
8861;SDS011;4799;50.996;4.754;2023-04-16T13:39:13;17.03;;;15.23;;
8861;SDS011;4799;50.996;4.754;2023-04-16T13:41:39;16.60;;;14.67;;
8861;SDS011;4799;50.996;4.754;2023-04-16T13:44:05;15.20;;;13.60;;
8861;SDS011;4799;50.996;4.754;2023-04-16T13:46:31;16.97;;;14.43;;
8861;SDS011;4799;50.996;4.754;2023-04-16T13:48:57;15.43;;;13.77;;
8861;SDS011;4799;50.996;4.754;2023-04-16T13:51:23;16.07;;;14.00;;
8861;SDS011;4799;50.996;4.754;2023-04-16T13:53:49;14.20;;;12.70;;
8861;SDS011;4799;50.996;4.754;2023-04-16T13:56:15;16.97;;;13.80;;
8861;SDS011;4799;50.996;4.754;2023-04-16T13:58:41;14.07;;;12.57;;
8861;SDS011;4799;50.996;4.754;2023-04-16T14:01:06;19.13;;;14.17;;
8861;SDS011;4799;50.996;4.754;2023-04-16T14:03:33;14.77;;;12.23;;
8861;SDS011;4799;50.996;4.754;2023-04-16T14:06:01;14.20;;;12.50;;
8861;SDS011;4799;50.996;4.754;2023-04-16T14:08:27;15.50;;;12.50;;
8861;SDS011;4799;50.996;4.754;2023-04-16T14:10:54;14.03;;;12.50;;
8861;SDS011;4799;50.996;4.754;2023-04-16T14:13:21;13.17;;;11.90;;
8861;SDS011;4799;50.996;4.754;2023-04-16T14:15:47;13.60;;;12.20;;
8861;SDS011;4799;50.996;4.754;2023-04-16T14:18:13;14.47;;;13.07;;
8861;SDS011;4799;50.996;4.754;2023-04-16T14:20:39;18.60;;;16.43;;
8861;SDS011;4799;50.996;4.754;2023-04-16T14:23:05;19.50;;;17.20;;
8861;SDS011;4799;50.996;4.754;2023-04-16T14:25:31;18.97;;;17.13;;
8861;SDS011;4799;50.996;4.754;2023-04-16T14:27:58;18.83;;;16.77;;
8861;SDS011;4799;50.996;4.754;2023-04-16T14:30:24;20.17;;;17.03;;
8861;SDS011;4799;50.996;4.754;2023-04-16T14:32:50;18.27;;;16.37;;
8861;SDS011;4799;50.996;4.754;2023-04-16T14:35:16;18.53;;;16.53;;
8861;SDS011;4799;50.996;4.754;2023-04-16T14:37:42;18.50;;;16.77;;
8861;SDS011;4799;50.996;4.754;2023-04-16T14:40:08;19.87;;;17.77;;
8861;SDS011;4799;50.996;4.754;2023-04-16T14:42:35;19.03;;;17.17;;
8861;SDS011;4799;50.996;4.754;2023-04-16T14:45:01;19.17;;;17.27;;
8861;SDS011;4799;50.996;4.754;2023-04-16T14:47:30;18.60;;;16.27;;
8861;SDS011;4799;50.996;4.754;2023-04-16T14:49:57;18.73;;;16.70;;
8861;SDS011;4799;50.996;4.754;2023-04-16T14:52:23;19.27;;;17.13;;
8861;SDS011;4799;50.996;4.754;2023-04-16T14:54:50;17.80;;;15.70;;
8861;SDS011;4799;50.996;4.754;2023-04-16T14:57:16;19.03;;;17.10;;
8861;SDS011;4799;50.996;4.754;2023-04-16T14:59:42;17.07;;;15.27;;
8861;SDS011;4799;50.996;4.754;2023-04-16T15:02:08;17.87;;;16.03;;
8861;SDS011;4799;50.996;4.754;2023-04-16T15:04:34;18.17;;;16.17;;
8861;SDS011;4799;50.996;4.754;2023-04-16T15:07:00;16.93;;;15.30;;
8861;SDS011;4799;50.996;4.754;2023-04-16T15:09:26;17.63;;;15.77;;